Time;durP1;ratioP1;P1;durP2;ratioP2;P2;SDS_P1;SDS_P2;PMS_P1;PMS_P2;Temp;Humidity;BMP_temperature;BMP_pressure;BME280_temperature;BME280_humidity;BME280_pressure;Samples;Min_cycle;Max_cycle;Signal;HPM_P1;HPM_P2
2023/05/26 00:00:12;;;;;;;7.75;5.75;;;16.60;99.90;;;;;;5093941;28;20024;-62
2023/05/26 00:02:39;;;;;;;11.15;5.57;;;16.50;99.90;;;;;;5094207;28;20457;-62
2023/05/26 00:05:08;;;;;;;11.63;5.30;;;16.40;99.90;;;;;;5093953;28;20039;-62
2023/05/26 00:07:39;;;;;;;8.05;5.40;;;16.40;99.90;;;;;;5094429;28;20028;-62
2023/05/26 00:10:11;;;;;;;10.52;5.60;;;16.40;99.90;;;;;;5093970;28;20024;-62
2023/05/26 00:12:38;;;;;;;11.38;5.32;;;16.30;99.90;;;;;;5093667;28;20042;-63
2023/05/26 00:15:04;;;;;;;11.88;6.07;;;16.30;99.90;;;;;;5094064;28;20482;-62
2023/05/26 00:17:30;;;;;;;8.45;5.95;;;16.20;99.90;;;;;;5093856;28;20162;-63
2023/05/26 00:19:59;;;;;;;11.25;5.82;;;16.10;99.90;;;;;;5093962;28;20039;-62
2023/05/26 00:22:28;;;;;;;9.95;5.97;;;16.10;99.90;;;;;;5093731;28;20048;-62
2023/05/26 00:24:54;;;;;;;10.85;6.30;;;16.00;99.90;;;;;;5093944;28;20139;-62
2023/05/26 00:27:19;;;;;;;11.50;5.80;;;16.00;99.90;;;;;;5093510;28;20095;-62
2023/05/26 00:29:45;;;;;;;12.80;6.07;;;16.00;99.90;;;;;;5093648;28;20055;-62
2023/05/26 00:32:11;;;;;;;14.35;6.10;;;16.00;99.90;;;;;;5093647;28;20023;-61
2023/05/26 00:34:37;;;;;;;11.93;5.93;;;16.00;99.90;;;;;;5092485;28;20032;-63
2023/05/26 00:37:03;;;;;;;10.73;5.72;;;16.00;99.90;;;;;;5093277;28;20055;-62
2023/05/26 00:39:30;;;;;;;12.57;5.97;;;16.00;99.90;;;;;;5093806;28;20036;-62
2023/05/26 00:41:57;;;;;;;12.25;6.00;;;15.90;99.90;;;;;;5093356;28;20012;-62
2023/05/26 00:44:23;;;;;;;12.02;5.60;;;15.80;99.90;;;;;;5093332;28;20032;-62
2023/05/26 00:46:49;;;;;;;9.70;5.88;;;15.80;99.90;;;;;;5093411;28;20073;-62
2023/05/26 00:49:15;;;;;;;11.50;5.70;;;15.80;99.90;;;;;;5093406;28;20031;-62
2023/05/26 00:51:43;;;;;;;11.82;5.60;;;15.70;99.90;;;;;;5093594;28;20024;-61
2023/05/26 00:54:09;;;;;;;13.55;6.30;;;15.70;99.90;;;;;;5093344;28;20034;-62
2023/05/26 00:56:35;;;;;;;13.43;5.90;;;15.70;99.90;;;;;;5092865;28;20020;-61
2023/05/26 00:59:03;;;;;;;13.18;5.38;;;15.70;99.90;;;;;;5093014;28;20501;-62
2023/05/26 01:01:32;;;;;;;9.52;5.78;;;15.60;99.90;;;;;;5093276;28;20024;-63
2023/05/26 01:03:59;;;;;;;11.13;5.60;;;15.60;99.90;;;;;;5093387;28;20024;-63
2023/05/26 01:06:25;;;;;;;9.85;5.88;;;15.60;99.90;;;;;;5092822;28;20027;-62
2023/05/26 01:08:53;;;;;;;9.10;5.47;;;15.50;99.90;;;;;;5092765;28;20024;-62
2023/05/26 01:11:26;;;;;;;10.55;5.90;;;15.50;99.90;;;;;;5092509;28;20498;-62
2023/05/26 01:13:58;;;;;;;9.55;5.60;;;15.40;99.90;;;;;;5093092;28;20040;-63
2023/05/26 01:16:28;;;;;;;10.10;5.70;;;15.40;99.90;;;;;;5092673;28;20053;-62
2023/05/26 01:19:16;;;;;;;11.80;6.07;;;15.40;99.90;;;;;;5092683;28;20028;-63
2023/05/26 01:21:44;;;;;;;11.45;5.80;;;15.20;99.90;;;;;;5070251;28;20112;-62
2023/05/26 01:24:26;;;;;;;9.55;6.20;;;15.10;99.90;;;;;;5070043;28;20065;-62
2023/05/26 01:26:57;;;;;;;9.57;5.75;;;15.00;99.90;;;;;;5069764;28;20411;-62
2023/05/26 01:29:26;;;;;;;10.15;5.78;;;15.00;99.90;;;;;;5070435;28;20041;-62
2023/05/26 01:31:51;;;;;;;10.30;5.72;;;15.00;99.90;;;;;;5069877;28;20024;-62
2023/05/26 01:34:17;;;;;;;9.15;6.03;;;15.00;99.90;;;;;;5070164;28;20070;-63
2023/05/26 01:36:43;;;;;;;11.18;6.25;;;15.00;99.90;;;;;;5070076;28;20048;-61
2023/05/26 01:39:09;;;;;;;8.90;5.78;;;14.90;99.90;;;;;;5069676;28;20123;-62
2023/05/26 01:42:04;;;;;;;8.57;5.88;;;14.90;99.90;;;;;;5069549;28;20141;-62
2023/05/26 01:44:36;;;;;;;9.70;5.82;;;14.80;99.90;;;;;;5069654;28;20033;-62
2023/05/26 01:47:03;;;;;;;11.25;5.97;;;14.80;99.90;;;;;;5069649;28;20028;-62
2023/05/26 01:49:30;;;;;;;10.02;5.82;;;14.70;99.90;;;;;;5069779;28;20028;-62
2023/05/26 01:52:00;;;;;;;9.02;5.70;;;14.70;99.90;;;;;;5069362;28;20032;-62
2023/05/26 01:54:27;;;;;;;9.23;6.20;;;14.70;99.90;;;;;;5069637;28;20036;-63
2023/05/26 01:56:54;;;;;;;7.90;5.75;;;14.70;99.90;;;;;;5069597;28;20028;-63
2023/05/26 01:59:24;;;;;;;9.95;6.28;;;14.60;99.90;;;;;;5071438;28;20036;-62
2023/05/26 02:01:50;;;;;;;10.18;6.00;;;14.60;99.90;;;;;;5071675;28;20035;-62
2023/05/26 02:04:16;;;;;;;9.32;6.03;;;14.60;99.90;;;;;;5070703;28;20494;-62
2023/05/26 02:06:41;;;;;;;11.43;6.05;;;14.60;99.90;;;;;;5071608;28;20104;-63
2023/05/26 02:09:07;;;;;;;9.00;6.40;;;14.50;99.90;;;;;;5071263;28;20044;-62
2023/05/26 02:11:34;;;;;;;9.55;6.03;;;14.50;99.90;;;;;;5071767;28;20042;-62
2023/05/26 02:14:00;;;;;;;8.90;5.97;;;14.50;99.90;;;;;;5071476;28;20520;-63
2023/05/26 02:16:26;;;;;;;9.38;6.35;;;14.50;99.90;;;;;;5071426;28;20052;-62
2023/05/26 02:18:52;;;;;;;12.27;6.28;;;14.40;99.90;;;;;;5071369;28;20555;-62
2023/05/26 02:21:18;;;;;;;12.60;6.03;;;14.40;99.90;;;;;;5071227;28;20071;-62
2023/05/26 02:23:44;;;;;;;10.05;6.20;;;14.40;99.90;;;;;;5069815;28;20027;-63
2023/05/26 02:26:10;;;;;;;10.30;5.95;;;14.40;99.90;;;;;;5071411;28;20132;-62
2023/05/26 02:28:40;;;;;;;8.95;6.13;;;14.30;99.90;;;;;;5071202;28;20107;-62
2023/05/26 02:31:05;;;;;;;11.85;6.03;;;14.30;99.90;;;;;;5083016;28;20107;-62
2023/05/26 02:33:31;;;;;;;9.70;6.22;;;14.20;99.90;;;;;;5091429;28;20123;-62
2023/05/26 02:35:57;;;;;;;8.23;6.72;;;14.20;99.90;;;;;;5091293;28;20158;-62
2023/05/26 02:38:22;;;;;;;9.32;6.88;;;14.20;99.90;;;;;;5091075;28;20031;-62
2023/05/26 02:40:49;;;;;;;11.98;6.75;;;14.10;99.90;;;;;;5091875;28;20024;-62
2023/05/26 02:43:15;;;;;;;10.32;6.55;;;14.10;99.90;;;;;;5091305;28;20093;-62
2023/05/26 02:45:41;;;;;;;10.95;6.50;;;14.10;99.90;;;;;;5091254;28;20024;-62
2023/05/26 02:48:07;;;;;;;9.30;6.95;;;14.10;99.90;;;;;;5091678;28;20043;-62
2023/05/26 02:50:33;;;;;;;11.82;5.95;;;14.10;99.90;;;;;;5091077;28;20017;-62
2023/05/26 02:52:58;;;;;;;9.95;6.80;;;14.10;99.90;;;;;;5090848;28;20475;-62
2023/05/26 02:55:25;;;;;;;13.18;6.53;;;14.00;99.90;;;;;;5091167;28;20399;-62
2023/05/26 02:57:51;;;;;;;8.90;6.50;;;14.00;99.90;;;;;;5090565;28;20409;-62
2023/05/26 03:00:18;;;;;;;9.15;6.57;;;14.00;99.90;;;;;;5091360;28;20032;-62
2023/05/26 03:02:44;;;;;;;9.80;6.53;;;14.00;99.90;;;;;;5091233;28;20024;-62
2023/05/26 03:05:10;;;;;;;8.98;6.30;;;13.90;99.90;;;;;;5090946;28;20166;-62
2023/05/26 03:07:36;;;;;;;9.40;6.65;;;13.90;99.90;;;;;;5090656;28;20555;-62
2023/05/26 03:10:02;;;;;;;10.43;6.70;;;13.90;99.90;;;;;;5091409;28;20124;-62
2023/05/26 03:12:28;;;;;;;10.75;6.63;;;13.80;99.90;;;;;;5090904;28;20398;-62
2023/05/26 03:14:54;;;;;;;10.45;6.93;;;13.80;99.90;;;;;;5090958;28;20024;-62
2023/05/26 03:17:20;;;;;;;13.05;7.30;;;13.80;99.90;;;;;;5090935;28;20795;-62
2023/05/26 03:19:46;;;;;;;8.38;6.80;;;13.70;99.90;;;;;;5090733;28;20106;-63
2023/05/26 03:22:11;;;;;;;13.05;7.07;;;13.70;99.90;;;;;;5090691;28;20024;-62
2023/05/26 03:24:37;;;;;;;10.68;7.38;;;13.70;99.90;;;;;;5091405;28;20504;-62
2023/05/26 03:27:04;;;;;;;9.32;6.97;;;13.70;99.90;;;;;;5091005;28;20454;-62
2023/05/26 03:29:30;;;;;;;11.82;7.07;;;13.60;99.90;;;;;;5090948;28;20055;-62
2023/05/26 03:31:57;;;;;;;10.93;7.03;;;13.60;99.90;;;;;;5090389;28;20085;-62
2023/05/26 03:34:25;;;;;;;9.75;6.70;;;13.50;99.90;;;;;;5090964;28;20028;-62
2023/05/26 03:36:52;;;;;;;10.00;7.25;;;13.60;99.90;;;;;;5090110;28;20522;-62
2023/05/26 03:39:18;;;;;;;12.68;7.65;;;13.50;99.90;;;;;;5090504;28;20105;-62
2023/05/26 03:41:44;;;;;;;12.23;7.25;;;13.50;99.90;;;;;;5090526;28;20021;-62
2023/05/26 03:44:10;;;;;;;9.13;6.97;;;13.50;99.90;;;;;;5090693;28;20490;-62
2023/05/26 03:46:36;;;;;;;11.80;7.93;;;13.40;99.90;;;;;;5091182;28;20186;-62
2023/05/26 03:49:01;;;;;;;9.82;7.40;;;13.40;99.90;;;;;;5090560;28;20059;-62
2023/05/26 03:51:27;;;;;;;10.35;7.60;;;13.40;99.90;;;;;;5090338;28;20032;-62
2023/05/26 03:53:53;;;;;;;11.82;8.10;;;13.30;99.90;;;;;;5090563;28;20044;-62
2023/05/26 03:56:19;;;;;;;9.75;7.70;;;13.30;99.90;;;;;;5090645;28;20024;-62
2023/05/26 03:58:45;;;;;;;10.75;7.90;;;13.20;99.90;;;;;;5090511;28;20055;-62
2023/05/26 04:01:10;;;;;;;12.98;8.23;;;13.20;99.90;;;;;;5090547;28;20111;-62
2023/05/26 04:03:36;;;;;;;9.38;7.47;;;13.20;99.90;;;;;;5090507;28;20036;-61
2023/05/26 04:06:02;;;;;;;11.68;7.88;;;13.20;99.90;;;;;;5090295;28;20025;-62
2023/05/26 04:08:28;;;;;;;11.73;7.72;;;13.20;99.90;;;;;;5090992;28;20101;-62
2023/05/26 04:10:54;;;;;;;9.40;7.63;;;13.20;99.90;;;;;;5094371;28;20031;-62
2023/05/26 04:13:20;;;;;;;11.20;7.28;;;13.10;99.90;;;;;;5094187;28;20028;-62
2023/05/26 04:15:46;;;;;;;10.98;7.63;;;13.10;99.90;;;;;;5094069;28;20426;-62
2023/05/26 04:18:11;;;;;;;9.23;7.47;;;13.10;99.90;;;;;;5093968;28;20398;-62
2023/05/26 04:20:37;;;;;;;11.48;7.22;;;13.10;99.90;;;;;;5092570;28;20120;-62
2023/05/26 04:23:03;;;;;;;9.40;7.13;;;13.10;99.90;;;;;;5093995;28;20027;-61
2023/05/26 04:25:28;;;;;;;9.50;7.53;;;13.10;99.90;;;;;;5093778;28;20375;-62
2023/05/26 04:27:57;;;;;;;9.65;7.95;;;13.10;99.90;;;;;;5093927;28;20036;-62
2023/05/26 04:30:23;;;;;;;11.25;7.47;;;13.00;99.90;;;;;;5093576;28;20012;-62
2023/05/26 04:32:49;;;;;;;12.07;7.90;;;12.90;99.90;;;;;;5093528;28;20127;-62
2023/05/26 04:35:15;;;;;;;11.18;7.95;;;12.90;99.90;;;;;;5093092;28;20058;-61
2023/05/26 04:37:42;;;;;;;11.65;8.13;;;12.90;99.90;;;;;;5094055;28;20032;-62
2023/05/26 04:40:09;;;;;;;12.15;8.23;;;12.90;99.90;;;;;;5093555;28;20028;-62
2023/05/26 04:42:38;;;;;;;12.90;7.65;;;12.80;99.90;;;;;;5093677;28;20402;-62
2023/05/26 04:45:05;;;;;;;11.00;7.18;;;12.90;99.90;;;;;;5093542;28;20107;-62
2023/05/26 04:47:32;;;;;;;11.48;8.00;;;12.90;99.90;;;;;;5093408;28;20056;-62
2023/05/26 04:50:02;;;;;;;14.13;8.20;;;13.00;99.90;;;;;;5093294;28;20027;-62
2023/05/26 04:52:28;;;;;;;14.38;8.48;;;12.90;99.90;;;;;;5093181;28;20080;-62
2023/05/26 04:54:54;;;;;;;19.80;9.02;;;12.90;99.90;;;;;;5093433;28;20032;-62
2023/05/26 04:57:20;;;;;;;26.38;9.00;;;12.90;99.90;;;;;;5093797;28;20091;-62
2023/05/26 04:59:46;;;;;;;23.02;8.98;;;13.00;99.90;;;;;;5093237;28;20143;-62
2023/05/26 05:02:12;;;;;;;18.10;9.25;;;13.00;99.90;;;;;;5093084;28;20021;-62
2023/05/26 05:04:42;;;;;;;12.80;8.32;;;13.00;99.90;;;;;;5092820;28;20081;-62
2023/05/26 05:07:08;;;;;;;15.30;7.93;;;13.00;99.90;;;;;;5092986;28;20032;-62
2023/05/26 05:09:33;;;;;;;13.60;8.27;;;12.90;99.90;;;;;;5093400;28;20038;-62
2023/05/26 05:12:00;;;;;;;14.52;8.13;;;13.00;99.90;;;;;;5092681;28;20028;-62
2023/05/26 05:14:26;;;;;;;13.90;8.23;;;13.00;99.90;;;;;;5092950;28;20040;-62
2023/05/26 05:16:51;;;;;;;9.63;8.38;;;13.00;99.90;;;;;;5092758;28;20097;-62
2023/05/26 05:19:17;;;;;;;11.65;7.93;;;12.90;99.90;;;;;;5092974;28;20028;-61
2023/05/26 05:21:43;;;;;;;10.55;7.80;;;13.00;99.90;;;;;;5092252;28;20095;-62
2023/05/26 05:24:08;;;;;;;11.00;8.18;;;13.00;99.90;;;;;;5092771;28;20020;-62
2023/05/26 05:26:34;;;;;;;11.45;8.15;;;13.10;99.90;;;;;;5092631;28;20544;-62
2023/05/26 05:29:00;;;;;;;10.07;7.57;;;13.10;99.90;;;;;;5092154;28;20391;-62
2023/05/26 05:31:25;;;;;;;10.15;7.95;;;13.10;99.90;;;;;;5092846;28;20032;-61
2023/05/26 05:33:51;;;;;;;11.88;8.15;;;13.10;99.90;;;;;;5092377;28;20047;-62
2023/05/26 05:36:16;;;;;;;11.55;8.15;;;13.20;99.90;;;;;;5092378;28;20048;-61
2023/05/26 05:38:42;;;;;;;9.70;8.02;;;13.20;99.90;;;;;;5092831;28;20085;-62
2023/05/26 05:41:09;;;;;;;10.40;7.90;;;13.20;99.90;;;;;;5092696;28;20024;-61
2023/05/26 05:43:34;;;;;;;9.95;8.80;;;13.20;99.90;;;;;;5092453;28;20028;-62
2023/05/26 05:46:00;;;;;;;10.27;7.57;;;13.20;99.90;;;;;;5092410;28;20020;-62
2023/05/26 05:48:27;;;;;;;9.57;7.32;;;13.30;99.90;;;;;;5091932;28;20060;-62
2023/05/26 05:50:53;;;;;;;12.88;7.97;;;13.40;99.90;;;;;;5092597;28;20032;-62
2023/05/26 05:53:18;;;;;;;9.73;7.93;;;13.40;99.90;;;;;;5091928;28;20063;-61
2023/05/26 05:55:46;;;;;;;11.38;7.85;;;13.50;99.90;;;;;;5091914;28;20055;-62
2023/05/26 05:58:13;;;;;;;12.90;8.25;;;13.50;99.90;;;;;;5092452;28;20024;-62
2023/05/26 06:00:38;;;;;;;11.32;8.20;;;13.60;99.90;;;;;;5091670;28;20027;-62
2023/05/26 06:03:04;;;;;;;11.85;7.93;;;13.60;99.90;;;;;;5092001;28;20016;-62
2023/05/26 06:05:30;;;;;;;12.73;8.38;;;13.60;99.90;;;;;;5090870;28;20028;-62
2023/05/26 06:07:55;;;;;;;8.40;7.45;;;13.70;99.90;;;;;;5092014;28;20043;-62
2023/05/26 06:10:21;;;;;;;11.88;7.68;;;13.80;99.90;;;;;;5091935;28;20035;-62
2023/05/26 06:12:47;;;;;;;8.18;7.30;;;13.80;99.90;;;;;;5091655;28;20039;-62
2023/05/26 06:15:12;;;;;;;10.48;7.53;;;13.80;99.90;;;;;;5091520;28;20030;-62
2023/05/26 06:17:38;;;;;;;8.68;7.13;;;13.90;99.90;;;;;;5091869;28;20371;-62
2023/05/26 06:20:04;;;;;;;13.07;7.90;;;14.00;99.90;;;;;;5092038;28;20371;-62
2023/05/26 06:22:30;;;;;;;12.32;7.30;;;14.00;99.90;;;;;;5091921;28;20024;-62
2023/05/26 06:24:56;;;;;;;9.18;7.47;;;14.10;99.90;;;;;;5091657;28;20020;-62
2023/05/26 06:27:21;;;;;;;9.82;7.20;;;14.10;99.90;;;;;;5091529;28;20478;-62
2023/05/26 06:29:47;;;;;;;12.02;7.40;;;14.20;99.90;;;;;;5091046;28;20414;-62
2023/05/26 06:32:13;;;;;;;12.23;7.28;;;14.20;99.90;;;;;;5090742;28;20052;-62
2023/05/26 06:34:38;;;;;;;11.50;7.32;;;14.30;99.90;;;;;;5091607;28;20040;-62
2023/05/26 06:37:04;;;;;;;8.48;6.80;;;14.40;99.90;;;;;;5091253;28;20048;-62
2023/05/26 06:39:30;;;;;;;8.93;7.13;;;14.40;99.90;;;;;;5091419;28;20032;-62
2023/05/26 06:41:56;;;;;;;8.60;6.68;;;14.40;99.90;;;;;;5091215;28;20028;-62
2023/05/26 06:44:23;;;;;;;8.50;6.97;;;14.50;99.90;;;;;;5090967;28;20020;-62
2023/05/26 06:46:49;;;;;;;7.65;6.40;;;14.50;99.90;;;;;;5091378;28;20398;-62
2023/05/26 06:49:15;;;;;;;11.73;7.05;;;14.60;99.90;;;;;;5091427;28;20032;-62
2023/05/26 06:51:40;;;;;;;7.63;5.97;;;14.60;99.90;;;;;;5091315;28;20024;-62
2023/05/26 06:54:06;;;;;;;9.80;6.20;;;14.70;99.90;;;;;;5091204;28;20414;-63
2023/05/26 06:56:32;;;;;;;9.15;6.50;;;14.70;99.90;;;;;;5091026;28;20028;-63
2023/05/26 06:58:58;;;;;;;9.18;6.35;;;14.80;99.90;;;;;;5090652;28;20727;-63
2023/05/26 07:01:23;;;;;;;11.43;6.70;;;14.90;99.90;;;;;;5091090;28;20029;-63
2023/05/26 07:03:49;;;;;;;7.82;6.10;;;15.00;99.90;;;;;;5091062;28;20138;-62
2023/05/26 07:06:15;;;;;;;9.52;6.28;;;15.00;99.90;;;;;;5091246;28;20032;-63
2023/05/26 07:08:40;;;;;;;6.65;5.95;;;15.10;99.90;;;;;;5091029;28;20035;-63
2023/05/26 07:11:07;;;;;;;9.20;6.57;;;15.10;99.90;;;;;;5085942;28;20500;-62
2023/05/26 07:13:32;;;;;;;10.30;6.72;;;15.20;99.90;;;;;;5087942;28;20048;-63
2023/05/26 07:15:58;;;;;;;9.82;5.95;;;15.30;99.90;;;;;;5079506;28;20529;-63
2023/05/26 07:18:24;;;;;;;11.52;6.65;;;15.40;99.90;;;;;;5070902;28;20036;-63
2023/05/26 07:20:49;;;;;;;12.65;6.85;;;15.50;99.90;;;;;;5070570;28;20025;-62
2023/05/26 07:23:15;;;;;;;10.02;7.03;;;15.50;99.90;;;;;;5071017;28;20028;-62
2023/05/26 07:25:41;;;;;;;11.90;6.65;;;15.60;99.90;;;;;;5071000;28;20400;-63
2023/05/26 07:28:06;;;;;;;7.95;6.85;;;15.60;99.90;;;;;;5070558;28;20024;-63
2023/05/26 07:30:32;;;;;;;11.43;6.47;;;15.70;99.90;;;;;;5077585;28;20089;-63
2023/05/26 07:32:57;;;;;;;8.90;6.30;;;15.80;99.90;;;;;;5088439;28;20086;-63
2023/05/26 07:35:23;;;;;;;11.27;6.50;;;16.00;99.90;;;;;;5091033;28;20040;-63
2023/05/26 07:37:49;;;;;;;10.43;6.18;;;16.00;99.90;;;;;;5090670;28;20105;-63
2023/05/26 07:40:15;;;;;;;11.95;6.38;;;16.10;99.90;;;;;;5090539;28;20490;-63
2023/05/26 07:42:42;;;;;;;11.10;6.20;;;16.20;99.90;;;;;;5090592;28;20039;-63
2023/05/26 07:45:08;;;;;;;11.00;6.10;;;16.30;99.90;;;;;;5093703;28;20498;-63
2023/05/26 07:47:34;;;;;;;9.40;6.40;;;16.40;99.90;;;;;;5094630;28;20133;-63
2023/05/26 07:50:01;;;;;;;12.68;6.32;;;16.50;99.90;;;;;;5094796;28;20566;-62
2023/05/26 07:52:27;;;;;;;10.60;6.18;;;16.70;99.90;;;;;;5094454;28;20096;-63
2023/05/26 07:54:52;;;;;;;12.77;6.63;;;16.70;99.90;;;;;;5091044;28;20047;-63
2023/05/26 07:57:18;;;;;;;11.02;6.03;;;16.80;99.90;;;;;;5087415;28;20048;-64
2023/05/26 07:59:44;;;;;;;7.80;5.38;;;16.90;99.90;;;;;;5073077;28;20439;-63
2023/05/26 08:02:12;;;;;;;16.10;6.60;;;17.00;99.90;;;;;;5073080;28;20055;-63
2023/05/26 08:04:38;;;;;;;9.95;6.10;;;17.10;99.90;;;;;;5073284;28;20582;-64
2023/05/26 08:07:04;;;;;;;10.38;6.97;;;17.20;99.90;;;;;;5073486;28;20138;-63
2023/05/26 08:09:33;;;;;;;10.80;7.10;;;17.20;99.90;;;;;;5073936;28;20112;-64
2023/05/26 08:11:59;;;;;;;12.02;6.85;;;17.20;99.90;;;;;;5073710;28;20151;-63
2023/05/26 08:14:26;;;;;;;8.85;6.05;;;17.40;99.90;;;;;;5073904;28;20119;-64
2023/05/26 08:16:51;;;;;;;8.18;6.47;;;17.40;99.90;;;;;;5073772;28;20017;-64
2023/05/26 08:19:17;;;;;;;9.95;6.70;;;17.50;99.90;;;;;;5073758;28;20029;-63
2023/05/26 08:21:43;;;;;;;10.25;6.63;;;17.60;99.90;;;;;;5074243;28;20024;-62
2023/05/26 08:24:08;;;;;;;11.10;7.53;;;17.50;99.90;;;;;;5073625;28;20036;-63
2023/05/26 08:26:34;;;;;;;9.95;7.10;;;17.50;99.90;;;;;;5073374;28;20017;-64
2023/05/26 08:29:00;;;;;;;10.43;7.47;;;17.50;99.90;;;;;;5073581;28;20668;-64
2023/05/26 08:31:25;;;;;;;10.20;6.90;;;17.50;99.90;;;;;;5087979;28;20082;-64
2023/05/26 08:33:53;;;;;;;11.13;6.57;;;17.60;99.90;;;;;;5094115;28;20059;-63
2023/05/26 08:36:19;;;;;;;13.20;8.35;;;17.60;99.90;;;;;;5093660;28;20618;-62
2023/05/26 08:38:45;;;;;;;12.82;8.93;;;17.70;99.90;;;;;;5093825;28;20027;-63
2023/05/26 08:41:18;;;;;;;14.63;9.00;;;17.80;99.90;;;;;;5093365;28;20085;-63
2023/05/26 08:43:56;;;;;;;15.80;9.70;;;17.80;99.90;;;;;;5093602;28;20046;-63
2023/05/26 08:46:22;;;;;;;14.23;8.98;;;17.90;99.90;;;;;;5093338;28;20559;-63
2023/05/26 08:48:50;;;;;;;15.40;9.50;;;17.90;99.90;;;;;;5093872;28;20052;-64
2023/05/26 08:51:16;;;;;;;11.07;9.30;;;18.00;99.90;;;;;;5093388;28;20040;-64
2023/05/26 08:53:43;;;;;;;10.05;8.55;;;18.10;99.90;;;;;;5093171;28;20089;-64
2023/05/26 08:56:09;;;;;;;9.07;7.57;;;18.20;99.90;;;;;;5091959;28;20121;-64
2023/05/26 08:58:36;;;;;;;11.10;8.02;;;18.20;99.90;;;;;;5093448;28;20864;-63
2023/05/26 09:01:02;;;;;;;11.70;7.57;;;18.40;99.90;;;;;;5093507;28;20028;-64
2023/05/26 09:03:28;;;;;;;10.50;7.35;;;18.60;99.90;;;;;;5093305;28;20027;-64
2023/05/26 09:05:54;;;;;;;10.73;7.63;;;18.60;99.90;;;;;;5093181;28;20505;-63
2023/05/26 09:08:20;;;;;;;10.98;7.10;;;18.70;99.90;;;;;;5092890;28;20074;-63
2023/05/26 09:10:46;;;;;;;8.82;7.45;;;18.70;99.90;;;;;;5092927;28;20028;-63
2023/05/26 09:13:15;;;;;;;9.77;7.50;;;19.00;99.90;;;;;;5092955;28;20036;-63
2023/05/26 09:15:41;;;;;;;10.57;7.32;;;19.10;99.90;;;;;;5092951;28;20020;-63
2023/05/26 09:18:09;;;;;;;9.20;7.22;;;19.10;99.90;;;;;;5092900;28;20035;-64
2023/05/26 09:20:43;;;;;;;8.82;7.22;;;19.20;99.90;;;;;;5093344;28;20028;-63
2023/05/26 09:23:09;;;;;;;11.00;7.63;;;19.20;99.90;;;;;;5092720;28;20494;-63
2023/05/26 09:25:37;;;;;;;11.15;7.50;;;19.40;99.90;;;;;;5092433;28;20080;-64
2023/05/26 09:28:04;;;;;;;10.70;7.65;;;19.70;99.90;;;;;;5092772;28;20651;-64
2023/05/26 09:30:38;;;;;;;11.35;8.00;;;19.80;99.90;;;;;;5092943;28;20027;-63
2023/05/26 09:33:04;;;;;;;;;;;19.80;99.90;;;;;;5093017;28;20153;-64
2023/05/26 09:35:35;;;;;;;11.15;8.43;;;19.90;99.90;;;;;;5092340;28;19919;-64
2023/05/26 09:38:03;;;;;;;10.50;7.35;;;20.00;99.90;;;;;;5092681;28;20028;-64
2023/05/26 09:40:28;;;;;;;8.35;5.68;;;20.30;99.90;;;;;;5092195;28;20028;-63
2023/05/26 09:42:54;;;;;;;8.15;6.00;;;20.50;99.90;;;;;;5092897;28;20425;-64
2023/05/26 09:45:20;;;;;;;8.48;5.50;;;20.70;99.90;;;;;;5092425;28;20111;-64
2023/05/26 09:47:56;;;;;;;7.43;6.00;;;20.90;99.90;;;;;;5092434;28;20481;-63
2023/05/26 09:50:22;;;;;;;7.68;5.35;;;21.10;99.90;;;;;;5092111;28;20027;-63
2023/05/26 09:52:49;;;;;;;7.32;5.40;;;21.10;99.90;;;;;;5091875;28;20047;-64
2023/05/26 09:55:15;;;;;;;6.50;5.20;;;21.00;99.90;;;;;;5092306;28;20020;-64
2023/05/26 09:57:43;;;;;;;7.20;5.50;;;21.00;99.90;;;;;;5092535;28;20050;-64
2023/05/26 10:00:10;;;;;;;8.32;5.13;;;21.00;99.90;;;;;;5092187;28;20505;-63
2023/05/26 10:02:37;;;;;;;8.25;5.68;;;21.00;99.90;;;;;;5092156;28;20077;-64
2023/05/26 10:05:03;;;;;;;8.60;5.50;;;21.10;99.90;;;;;;5086363;28;20483;-64
2023/05/26 10:07:30;;;;;;;9.85;6.38;;;21.20;99.90;;;;;;5072510;28;20437;-62
2023/05/26 10:09:58;;;;;;;9.27;6.25;;;21.50;99.90;;;;;;5079548;28;20379;-63
2023/05/26 10:12:30;;;;;;;10.43;5.32;;;21.50;99.90;;;;;;5074610;28;20062;-63
2023/05/26 10:14:56;;;;;;;8.45;5.60;;;21.70;99.90;;;;;;5071287;28;20044;-63
2023/05/26 10:17:22;;;;;;;8.07;5.22;;;22.00;99.90;;;;;;5071573;28;20032;-63
2023/05/26 10:19:49;;;;;;;8.75;5.20;;;22.00;99.90;;;;;;5071037;28;20035;-63
2023/05/26 10:22:23;;;;;;;6.53;5.03;;;22.20;99.90;;;;;;5071052;28;20066;-63
2023/05/26 10:25:07;;;;;;;8.45;5.18;;;22.30;99.90;;;;;;5071488;28;20020;-63
2023/05/26 10:27:59;;;;;;;9.27;5.20;;;22.40;99.90;;;;;;5071562;28;20028;-63
2023/05/26 10:30:26;;;;;;;6.03;4.72;;;22.40;99.90;;;;;;5090679;28;20020;-63
2023/05/26 10:32:56;;;;;;;6.88;5.00;;;22.70;99.90;;;;;;5091189;28;20507;-63
2023/05/26 10:35:24;;;;;;;13.02;5.00;;;22.90;99.90;;;;;;5091347;28;20097;-63
2023/05/26 10:37:54;;;;;;;6.13;5.35;;;22.80;99.90;;;;;;5091184;28;20114;-64
2023/05/26 10:40:40;;;;;;;12.10;5.90;;;22.80;99.90;;;;;;5083898;28;20399;-63
2023/05/26 10:43:18;;;;;;;9.00;5.55;;;22.90;99.90;;;;;;5081886;28;20478;-62
2023/05/26 10:45:52;;;;;;;9.00;5.43;;;23.00;99.90;;;;;;5091340;28;20028;-62
2023/05/26 10:48:18;;;;;;;7.35;5.50;;;23.10;99.90;;;;;;5072108;28;20121;-63
2023/05/26 10:50:59;;;;;;;8.35;6.15;;;23.30;99.90;;;;;;5084791;28;20020;-63
2023/05/26 10:53:29;;;;;;;9.30;6.00;;;23.30;99.90;;;;;;5091420;28;20526;-63
2023/05/26 10:55:58;;;;;;;8.52;5.65;;;23.40;99.90;;;;;;5090919;28;20024;-63
2023/05/26 10:58:27;;;;;;;7.10;4.90;;;23.30;99.90;;;;;;5072401;28;20060;-62
2023/05/26 11:01:06;;;;;;;5.45;4.95;;;23.40;99.90;;;;;;5084182;28;20028;-62
2023/05/26 11:03:40;;;;;;;11.93;5.03;;;23.60;99.90;;;;;;5085851;28;20056;-63
2023/05/26 11:06:07;;;;;;;7.05;5.00;;;23.80;99.90;;;;;;5090820;28;20032;-63
2023/05/26 11:08:40;;;;;;;8.00;5.38;;;23.90;99.90;;;;;;5090472;28;20175;-63
2023/05/26 11:11:12;;;;;;;7.32;5.07;;;24.00;99.90;;;;;;5070745;28;20024;-63
2023/05/26 11:13:41;;;;;;;7.75;5.35;;;24.00;99.90;;;;;;5070841;28;20072;-64
2023/05/26 11:16:20;;;;;;;5.43;4.63;;;24.00;99.90;;;;;;5070868;28;20024;-64
2023/05/26 11:18:54;;;;;;;6.07;4.57;;;24.00;99.90;;;;;;5071875;28;20111;-64
2023/05/26 11:21:25;;;;;;;6.45;4.72;;;24.20;99.90;;;;;;5074125;28;20021;-61
2023/05/26 11:23:56;;;;;;;5.43;4.90;;;24.00;99.90;;;;;;5075194;28;20024;-62
2023/05/26 11:26:23;;;;;;;4.82;4.43;;;23.90;99.90;;;;;;5074381;28;20029;-63
2023/05/26 11:28:50;;;;;;;5.93;4.25;;;23.90;99.90;;;;;;5074718;28;20033;-63
2023/05/26 11:31:18;;;;;;;5.25;4.68;;;24.20;99.90;;;;;;5087431;28;20035;-63
2023/05/26 11:33:45;;;;;;;6.72;4.20;;;24.40;99.90;;;;;;5094486;28;20044;-63
2023/05/26 11:36:20;;;;;;;5.68;4.53;;;24.60;99.90;;;;;;5088741;28;20076;-63
2023/05/26 11:38:50;;;;;;;6.85;4.28;;;24.60;99.90;;;;;;5086568;28;20028;-63
2023/05/26 11:41:16;;;;;;;6.90;4.75;;;24.70;99.90;;;;;;5094179;28;20056;-63
2023/05/26 11:43:45;;;;;;;7.22;4.43;;;24.80;99.90;;;;;;5094609;28;20051;-63
2023/05/26 11:46:15;;;;;;;6.63;4.32;;;24.60;99.90;;;;;;5087949;28;20066;-62
2023/05/26 11:48:42;;;;;;;6.88;4.47;;;24.50;99.90;;;;;;5092431;28;20028;-63
2023/05/26 11:51:19;;;;;;;8.25;4.82;;;24.60;99.90;;;;;;5094435;28;20035;-62
2023/05/26 11:53:47;;;;;;;5.72;4.30;;;24.80;99.90;;;;;;5094160;28;20036;-64
2023/05/26 11:56:14;;;;;;;7.63;4.50;;;24.90;99.90;;;;;;5094000;28;20436;-63
2023/05/26 11:58:41;;;;;;;6.97;4.60;;;24.80;99.90;;;;;;5093255;28;20027;-64
2023/05/26 12:01:09;;;;;;;6.55;4.45;;;24.60;99.90;;;;;;5094053;28;20036;-63
2023/05/26 12:03:38;;;;;;;9.02;4.70;;;24.60;99.90;;;;;;5079173;28;20063;-64
2023/05/26 12:06:13;;;;;;;6.43;4.75;;;24.70;99.90;;;;;;5077199;28;20036;-63
2023/05/26 12:08:53;;;;;;;6.47;4.53;;;24.60;99.90;;;;;;5073951;28;20035;-63
2023/05/26 12:11:38;;;;;;;6.57;4.32;;;23.70;99.90;;;;;;5085173;28;20050;-63
2023/05/26 12:14:05;;;;;;;6.82;4.28;;;25.00;99.90;;;;;;5074080;28;20034;-63
2023/05/26 12:16:39;;;;;;;4.88;4.20;;;25.10;99.90;;;;;;5073646;28;20033;-62
2023/05/26 12:19:07;;;;;;;5.57;4.30;;;25.40;99.90;;;;;;5073650;28;20028;-63
2023/05/26 12:21:48;;;;;;;7.40;4.20;;;25.60;99.90;;;;;;5073740;28;20037;-62
2023/05/26 12:24:33;;;;;;;7.40;4.63;;;25.40;99.90;;;;;;5072516;28;20029;-63
2023/05/26 12:27:05;;;;;;;6.50;4.32;;;25.50;99.90;;;;;;5072942;28;20024;-63
2023/05/26 12:29:36;;;;;;;6.82;4.50;;;25.30;99.90;;;;;;5073687;28;20017;-63
2023/05/26 12:32:04;;;;;;;6.05;4.50;;;25.20;99.90;;;;;;5093014;28;20047;-63
2023/05/26 12:34:30;;;;;;;6.70;4.50;;;25.10;99.90;;;;;;5093831;28;20048;-63
2023/05/26 12:36:56;;;;;;;7.18;4.63;;;25.40;99.90;;;;;;5093604;28;20534;-63
2023/05/26 12:39:21;;;;;;;5.53;4.30;;;25.40;99.90;;;;;;5094154;28;20072;-63
2023/05/26 12:41:47;;;;;;;9.02;4.45;;;25.40;99.90;;;;;;5093728;28;20028;-63
2023/05/26 12:44:14;;;;;;;6.72;4.60;;;25.30;99.90;;;;;;5093430;28;20451;-63